Time;durP1;ratioP1;P1;durP2;ratioP2;P2;SDS_P1;SDS_P2;PMS_P1;PMS_P2;Temp;Humidity;BMP_temperature;BMP_pressure;BME280_temperature;BME280_humidity;BME280_pressure;Samples;Min_cycle;Max_cycle;Signal;HPM_P1;HPM_P2
2021/08/17 00:00:48;;;;;;;13.30;6.27;;;;;;;;;;10479425;28;20619;-72
2021/08/17 00:05:52;;;;;;;11.67;6.03;;;;;;;;;;10460766;28;20295;-71
2021/08/17 00:10:54;;;;;;;16.63;6.17;;;;;;;;;;10461966;28;20224;-71
2021/08/17 00:15:58;;;;;;;12.03;5.73;;;;;;;;;;10473412;28;20227;-72
2021/08/17 00:21:01;;;;;;;12.03;6.23;;;;;;;;;;10471949;28;20212;-71
2021/08/17 00:26:03;;;;;;;12.83;6.07;;;;;;;;;;10471086;28;20196;-72
2021/08/17 00:31:07;;;;;;;11.97;5.13;;;;;;;;;;10460293;28;20270;-71
2021/08/17 00:36:10;;;;;;;12.90;6.73;;;;;;;;;;10465293;28;20616;-72
2021/08/17 00:41:13;;;;;;;11.87;6.30;;;;;;;;;;10475125;28;20220;-71
2021/08/17 00:46:17;;;;;;;13.87;6.37;;;;;;;;;;10475493;28;20188;-72
2021/08/17 00:51:19;;;;;;;11.67;6.00;;;;;;;;;;10480033;28;20627;-71
2021/08/17 00:56:22;;;;;;;15.57;6.57;;;;;;;;;;10460114;28;20227;-71
2021/08/17 01:01:26;;;;;;;12.10;6.17;;;;;;;;;;10468775;28;20220;-72
2021/08/17 01:06:30;;;;;;;13.63;6.10;;;;;;;;;;10467935;28;20200;-72
2021/08/17 01:11:32;;;;;;;12.47;6.13;;;;;;;;;;10470730;28;20246;-71
2021/08/17 01:16:36;;;;;;;13.33;6.37;;;;;;;;;;10474740;28;20227;-70
2021/08/17 01:21:39;;;;;;;12.87;6.20;;;;;;;;;;10480086;28;20295;-72
2021/08/17 01:27:03;;;;;;;14.20;6.83;;;;;;;;;;10480365;28;20287;-71
2021/08/17 01:32:06;;;;;;;13.13;6.70;;;;;;;;;;10485870;28;20591;-72
2021/08/17 01:37:08;;;;;;;12.13;5.40;;;;;;;;;;10480542;28;20203;-71
2021/08/17 01:42:12;;;;;;;9.53;4.10;;;;;;;;;;10479966;28;20266;-72
2021/08/17 01:47:15;;;;;;;8.80;4.00;;;;;;;;;;10482006;28;20207;-72
2021/08/17 01:52:18;;;;;;;8.07;3.00;;;;;;;;;;10477083;28;20217;-71
2021/08/17 01:57:22;;;;;;;6.97;2.87;;;;;;;;;;10466925;28;20193;-71
2021/08/17 02:02:24;;;;;;;5.53;2.43;;;;;;;;;;10475264;28;20225;-72
2021/08/17 02:07:27;;;;;;;6.00;2.57;;;;;;;;;;10472896;28;20332;-72
2021/08/17 02:12:31;;;;;;;5.83;2.17;;;;;;;;;;10483162;28;20219;-71
2021/08/17 02:17:33;;;;;;;5.97;2.10;;;;;;;;;;10477074;28;20205;-72
2021/08/17 02:22:36;;;;;;;4.07;1.83;;;;;;;;;;10472845;28;20221;-72
2021/08/17 02:27:40;;;;;;;4.90;1.87;;;;;;;;;;10472087;28;20287;-72
2021/08/17 02:32:42;;;;;;;5.00;1.80;;;;;;;;;;10477123;28;20216;-72
2021/08/17 02:37:45;;;;;;;4.87;1.87;;;;;;;;;;10467918;28;20300;-72
2021/08/17 02:42:49;;;;;;;5.00;2.13;;;;;;;;;;10478428;28;20396;-71
2021/08/17 02:47:55;;;;;;;4.63;1.73;;;;;;;;;;10471077;28;20248;-70
2021/08/17 02:52:57;;;;;;;4.43;1.90;;;;;;;;;;10474084;28;20725;-71
2021/08/17 02:58:05;;;;;;;3.97;1.80;;;;;;;;;;10473654;28;20193;-71
2021/08/17 03:03:08;;;;;;;3.60;1.60;;;;;;;;;;10467804;28;20247;-72
2021/08/17 03:08:10;;;;;;;3.87;1.50;;;;;;;;;;10475065;28;20308;-73
2021/08/17 03:13:14;;;;;;;2.40;1.10;;;;;;;;;;10475394;28;20272;-72
2021/08/17 03:18:17;;;;;;;4.00;1.30;;;;;;;;;;10475932;28;20522;-71
2021/08/17 03:23:20;;;;;;;3.53;1.50;;;;;;;;;;10472069;28;20655;-71
2021/08/17 03:28:24;;;;;;;4.63;1.67;;;;;;;;;;10472740;28;20553;-71
2021/08/17 03:33:26;;;;;;;4.27;1.60;;;;;;;;;;10485239;28;20276;-72
2021/08/17 03:38:29;;;;;;;5.00;1.73;;;;;;;;;;10477141;28;20200;-72
2021/08/17 03:43:33;;;;;;;5.23;1.77;;;;;;;;;;10471767;28;20216;-71
2021/08/17 03:48:35;;;;;;;5.30;2.13;;;;;;;;;;10468901;28;20304;-71
2021/08/17 03:53:38;;;;;;;5.53;2.07;;;;;;;;;;10472737;28;20731;-71
2021/08/17 03:58:42;;;;;;;6.40;1.80;;;;;;;;;;10473716;28;20275;-72
2021/08/17 04:03:44;;;;;;;5.97;1.90;;;;;;;;;;10464814;28;20295;-72
2021/08/17 04:08:48;;;;;;;4.30;2.00;;;;;;;;;;10480247;28;20207;-72
2021/08/17 04:13:51;;;;;;;7.67;2.40;;;;;;;;;;10475673;28;20277;-71
2021/08/17 04:18:54;;;;;;;4.90;2.03;;;;;;;;;;10476339;28;20196;-72
2021/08/17 04:23:59;;;;;;;6.07;2.20;;;;;;;;;;10463695;28;20530;-70
2021/08/17 04:29:03;;;;;;;6.20;2.10;;;;;;;;;;10478501;28;20596;-72
2021/08/17 04:34:05;;;;;;;5.53;2.50;;;;;;;;;;10485722;28;20603;-72
2021/08/17 04:39:08;;;;;;;6.67;2.80;;;;;;;;;;10474267;28;20189;-71
2021/08/17 04:44:12;;;;;;;8.17;2.77;;;;;;;;;;10467647;28;20244;-71
2021/08/17 04:49:14;;;;;;;8.33;2.30;;;;;;;;;;10469159;28;20204;-71
2021/08/17 04:54:17;;;;;;;6.73;2.60;;;;;;;;;;10462883;28;20276;-72
2021/08/17 04:59:20;;;;;;;8.00;3.00;;;;;;;;;;10468992;28;20242;-71
2021/08/17 05:04:23;;;;;;;7.30;2.90;;;;;;;;;;10473397;28;20188;-71
2021/08/17 05:09:25;;;;;;;6.60;2.47;;;;;;;;;;10472756;28;20291;-71
2021/08/17 05:14:29;;;;;;;7.13;2.50;;;;;;;;;;10476737;28;20296;-71
2021/08/17 05:19:32;;;;;;;5.10;2.13;;;;;;;;;;10478209;28;20270;-72
2021/08/17 05:24:34;;;;;;;7.30;2.30;;;;;;;;;;10475843;28;20271;-71
2021/08/17 05:29:38;;;;;;;4.90;2.07;;;;;;;;;;10485444;28;20589;-72
2021/08/17 05:34:41;;;;;;;6.07;2.40;;;;;;;;;;10473188;28;20201;-74
2021/08/17 05:39:44;;;;;;;5.60;2.20;;;;;;;;;;10488567;28;20287;-72
2021/08/17 05:44:48;;;;;;;6.37;2.50;;;;;;;;;;10478308;28;20664;-71
2021/08/17 05:49:50;;;;;;;5.97;2.07;;;;;;;;;;10480705;28;20239;-72
2021/08/17 05:54:53;;;;;;;5.97;2.40;;;;;;;;;;10474505;28;20195;-72
2021/08/17 05:59:57;;;;;;;7.57;2.50;;;;;;;;;;10476985;28;20235;-70
2021/08/17 06:05:04;;;;;;;5.83;2.57;;;;;;;;;;10475343;28;20623;-70
2021/08/17 06:10:07;;;;;;;7.20;3.07;;;;;;;;;;10481329;28;20214;-68
2021/08/17 06:15:11;;;;;;;6.40;2.33;;;;;;;;;;10478262;28;20195;-69
2021/08/17 06:20:14;;;;;;;6.90;2.87;;;;;;;;;;10469039;28;20219;-69
2021/08/17 06:25:17;;;;;;;9.03;3.37;;;;;;;;;;10477882;28;20227;-71
2021/08/17 06:30:20;;;;;;;7.67;2.93;;;;;;;;;;10481197;28;20673;-70
2021/08/17 06:35:28;;;;;;;7.00;2.80;;;;;;;;;;10477632;28;20205;-71
2021/08/17 06:40:30;;;;;;;5.93;2.90;;;;;;;;;;10480822;28;20292;-71
2021/08/17 06:45:34;;;;;;;6.00;2.47;;;;;;;;;;10482353;28;20224;-71
2021/08/17 06:50:37;;;;;;;9.03;3.13;;;;;;;;;;10484432;28;20240;-70
2021/08/17 06:55:39;;;;;;;7.93;2.97;;;;;;;;;;10479956;28;20196;-71
2021/08/17 07:00:44;;;;;;;7.17;2.80;;;;;;;;;;10484609;28;20220;-71
2021/08/17 07:05:47;;;;;;;7.73;2.70;;;;;;;;;;10480693;28;20277;-71
2021/08/17 07:10:50;;;;;;;6.40;2.57;;;;;;;;;;10479972;28;20303;-72
2021/08/17 07:16:00;;;;;;;7.87;2.80;;;;;;;;;;10481657;28;20268;-72
2021/08/17 07:21:03;;;;;;;5.70;2.63;;;;;;;;;;10472746;28;20209;-70
2021/08/17 07:26:05;;;;;;;6.90;2.60;;;;;;;;;;10472479;28;20631;-72
2021/08/17 07:31:09;;;;;;;6.07;2.70;;;;;;;;;;10477469;28;20239;-72
2021/08/17 07:36:12;;;;;;;5.68;2.50;;;;;;;;;;10467033;28;20200;-71
2021/08/17 07:41:14;;;;;;;6.28;2.45;;;;;;;;;;10480571;28;20683;-74
2021/08/17 07:46:18;;;;;;;6.03;2.50;;;;;;;;;;10473141;28;20307;-74
2021/08/17 07:51:21;;;;;;;5.43;2.58;;;;;;;;;;10478530;28;20601;-72
2021/08/17 07:56:23;;;;;;;6.50;2.50;;;;;;;;;;10469464;28;20197;-71
2021/08/17 08:01:27;;;;;;;6.78;2.92;;;;;;;;;;10472938;28;20295;-73
2021/08/17 08:06:30;;;;;;;6.15;2.70;;;;;;;;;;10473368;28;20287;-70
2021/08/17 08:11:33;;;;;;;7.00;2.80;;;;;;;;;;10476381;28;20702;-69
2021/08/17 08:16:36;;;;;;;5.78;2.60;;;;;;;;;;10484664;28;20267;-70
2021/08/17 08:21:40;;;;;;;6.07;3.45;;;;;;;;;;10466124;28;20576;-71
2021/08/17 08:26:42;;;;;;;5.82;2.92;;;;;;;;;;10472722;28;20193;-72
2021/08/17 08:31:46;;;;;;;4.57;2.58;;;;;;;;;;10479395;28;20231;-71
2021/08/17 08:36:50;;;;;;;4.82;2.58;;;;;;;;;;10492565;28;20537;-71
2021/08/17 08:41:54;;;;;;;5.30;2.65;;;;;;;;;;10491320;28;20207;-71
2021/08/17 08:46:59;;;;;;;5.45;2.65;;;;;;;;;;10494310;28;20640;-71
2021/08/17 08:52:02;;;;;;;5.28;2.70;;;;;;;;;;10491185;28;20221;-69
2021/08/17 08:57:04;;;;;;;4.90;3.05;;;;;;;;;;10489261;28;20641;-69
2021/08/17 09:02:09;;;;;;;5.88;2.90;;;;;;;;;;10496299;28;20675;-70
2021/08/17 09:07:12;;;;;;;6.13;2.92;;;;;;;;;;10490196;28;20203;-69
2021/08/17 09:12:15;;;;;;;4.97;2.65;;;;;;;;;;10478911;28;20221;-70
2021/08/17 09:17:19;;;;;;;5.38;2.97;;;;;;;;;;10474155;28;20232;-69
2021/08/17 09:22:31;;;;;;;6.07;2.97;;;;;;;;;;10489578;28;20215;-69
2021/08/17 09:27:35;;;;;;;5.30;3.08;;;;;;;;;;10490024;28;20279;-70
2021/08/17 09:32:52;;;;;;;6.38;3.17;;;;;;;;;;10488968;28;20232;-70
2021/08/17 09:38:07;;;;;;;5.43;3.08;;;;;;;;;;10490467;28;20652;-69
2021/08/17 09:43:13;;;;;;;6.00;3.03;;;;;;;;;;10484625;28;20232;-69
2021/08/17 09:48:27;;;;;;;4.70;2.60;;;;;;;;;;10478234;28;20687;-69
2021/08/17 09:53:30;;;;;;;4.15;2.60;;;;;;;;;;10477938;28;20374;-69
2021/08/17 09:58:34;;;;;;;4.82;2.83;;;;;;;;;;10470910;28;20227;-70
2021/08/17 10:03:38;;;;;;;5.78;2.95;;;;;;;;;;10487200;28;20656;-70
2021/08/17 10:08:41;;;;;;;7.13;2.95;;;;;;;;;;10481579;28;20211;-69
2021/08/17 10:13:44;;;;;;;5.95;2.50;;;;;;;;;;10481320;28;20221;-68
2021/08/17 10:18:48;;;;;;;6.95;3.03;;;;;;;;;;10479906;28;20692;-67
2021/08/17 10:23:50;;;;;;;6.35;3.17;;;;;;;;;;10478402;28;20639;-67
2021/08/17 10:28:53;;;;;;;4.95;2.50;;;;;;;;;;10488122;28;20188;-68
2021/08/17 10:34:07;;;;;;;5.90;2.53;;;;;;;;;;10475557;28;20311;-69
2021/08/17 10:39:24;;;;;;;5.07;2.40;;;;;;;;;;10466869;28;20277;-68
2021/08/17 10:44:31;;;;;;;6.32;3.05;;;;;;;;;;10472331;28;20197;-69
2021/08/17 10:49:46;;;;;;;4.30;2.60;;;;;;;;;;10471236;28;20685;-69
2021/08/17 10:55:09;;;;;;;6.00;2.95;;;;;;;;;;10470877;28;20360;-69
2021/08/17 11:00:11;;;;;;;4.97;2.75;;;;;;;;;;10467620;28;20287;-70
2021/08/17 11:05:35;;;;;;;7.50;3.10;;;;;;;;;;10472873;28;20184;-70
2021/08/17 11:10:38;;;;;;;5.15;2.80;;;;;;;;;;10472721;28;20255;-69
2021/08/17 11:15:41;;;;;;;6.15;3.30;;;;;;;;;;10481674;28;20196;-69
2021/08/17 11:20:45;;;;;;;5.32;2.83;;;;;;;;;;10480804;28;20227;-68
2021/08/17 11:26:07;;;;;;;5.93;2.70;;;;;;;;;;10492909;28;20197;-69
2021/08/17 11:31:10;;;;;;;5.93;2.40;;;;;;;;;;10484279;28;20211;-69
2021/08/17 11:36:23;;;;;;;5.10;2.80;;;;;;;;;;10474623;28;20300;-69
2021/08/17 11:41:31;;;;;;;4.80;2.42;;;;;;;;;;10483639;28;20589;-69
2021/08/17 11:46:34;;;;;;;5.88;2.72;;;;;;;;;;10474445;28;20198;-68
2021/08/17 11:51:38;;;;;;;6.22;2.67;;;;;;;;;;10473121;28;20220;-69
2021/08/17 11:56:40;;;;;;;6.20;2.63;;;;;;;;;;10478157;28;20200;-69
2021/08/17 12:01:43;;;;;;;5.40;2.65;;;;;;;;;;10475156;28;20278;-67
2021/08/17 12:07:05;;;;;;;6.07;2.58;;;;;;;;;;10477231;28;20201;-68
2021/08/17 12:12:08;;;;;;;6.35;3.00;;;;;;;;;;10477101;28;20321;-70
2021/08/17 12:17:12;;;;;;;6.72;2.90;;;;;;;;;;10473642;28;20279;-69
2021/08/17 12:22:26;;;;;;;5.25;2.60;;;;;;;;;;10474826;28;20216;-69
2021/08/17 12:27:29;;;;;;;6.13;2.70;;;;;;;;;;10469550;28;20224;-68
2021/08/17 12:32:32;;;;;;;6.32;2.78;;;;;;;;;;10474271;28;20228;-68
2021/08/17 12:37:37;;;;;;;5.25;2.67;;;;;;;;;;10469392;28;20196;-69
2021/08/17 12:42:42;;;;;;;6.45;2.78;;;;;;;;;;10476181;28;20247;-69
2021/08/17 12:47:57;;;;;;;4.30;2.40;;;;;;;;;;10475045;28;20192;-69
2021/08/17 12:53:03;;;;;;;4.65;2.38;;;;;;;;;;10477742;28;20306;-71
2021/08/17 12:58:06;;;;;;;6.10;2.70;;;;;;;;;;10468216;28;20193;-70
2021/08/17 13:03:09;;;;;;;6.15;2.72;;;;;;;;;;10465807;28;20529;-70
2021/08/17 13:08:13;;;;;;;5.88;2.90;;;;;;;;;;10470711;28;20197;-69
2021/08/17 13:13:16;;;;;;;5.80;2.70;;;;;;;;;;10477341;28;20653;-69
2021/08/17 13:18:18;;;;;;;5.70;2.70;;;;;;;;;;10475720;28;20489;-70
2021/08/17 13:23:22;;;;;;;5.70;2.80;;;;;;;;;;10485478;28;20231;-69
2021/08/17 13:28:24;;;;;;;5.65;2.80;;;;;;;;;;10479331;28;20603;-70
2021/08/17 13:33:27;;;;;;;6.80;2.97;;;;;;;;;;10472446;28;20221;-68
2021/08/17 13:38:31;;;;;;;5.80;2.40;;;;;;;;;;10484685;28;20200;-67
2021/08/17 13:43:33;;;;;;;5.22;2.20;;;;;;;;;;10488611;28;20306;-68
2021/08/17 13:48:36;;;;;;;4.88;2.60;;;;;;;;;;10486815;28;20207;-68
2021/08/17 13:53:40;;;;;;;4.82;2.60;;;;;;;;;;10476578;28;20208;-68
2021/08/17 13:58:42;;;;;;;6.10;2.60;;;;;;;;;;10477361;28;20279;-69
2021/08/17 14:03:45;;;;;;;5.75;2.38;;;;;;;;;;10469764;28;20220;-69
2021/08/17 14:08:49;;;;;;;6.43;2.38;;;;;;;;;;10476071;28;20215;-69
2021/08/17 14:13:52;;;;;;;7.35;3.60;;;;;;;;;;10463193;28;20220;-69
2021/08/17 14:18:55;;;;;;;5.13;2.22;;;;;;;;;;10471020;28;20213;-69
2021/08/17 14:23:59;;;;;;;5.68;2.20;;;;;;;;;;10480513;28;20308;-70
2021/08/17 14:29:03;;;;;;;5.45;2.30;;;;;;;;;;10476529;28;20227;-69
2021/08/17 14:34:06;;;;;;;5.97;2.60;;;;;;;;;;10484296;28;20216;-69
2021/08/17 14:39:10;;;;;;;5.40;2.22;;;;;;;;;;10479600;28;20216;-69
2021/08/17 14:44:12;;;;;;;5.25;2.38;;;;;;;;;;10484717;28;20204;-68
2021/08/17 14:49:15;;;;;;;5.53;2.60;;;;;;;;;;10471998;28;20211;-69
2021/08/17 14:54:19;;;;;;;5.60;2.60;;;;;;;;;;10471628;28;20217;-69
2021/08/17 14:59:22;;;;;;;6.05;2.80;;;;;;;;;;10476699;28;20283;-68
2021/08/17 15:04:24;;;;;;;5.47;2.60;;;;;;;;;;10475648;28;20182;-69
2021/08/17 15:09:28;;;;;;;7.72;3.38;;;;;;;;;;10476424;28;20224;-69
2021/08/17 15:14:31;;;;;;;5.93;2.40;;;;;;;;;;10482049;28;20220;-69
2021/08/17 15:19:33;;;;;;;5.30;2.63;;;;;;;;;;10471445;28;20261;-69
2021/08/17 15:24:37;;;;;;;6.40;2.50;;;;;;;;;;10480634;28;20315;-67
2021/08/17 15:29:40;;;;;;;5.95;2.60;;;;;;;;;;10477883;28;20196;-68
2021/08/17 15:34:42;;;;;;;4.75;2.50;;;;;;;;;;10474410;28;20296;-69
2021/08/17 15:39:46;;;;;;;6.03;2.75;;;;;;;;;;10477955;28;20230;-69
2021/08/17 15:44:49;;;;;;;6.20;2.70;;;;;;;;;;10471125;28;20802;-69
2021/08/17 15:49:52;;;;;;;5.90;2.70;;;;;;;;;;10476954;28;20276;-69
2021/08/17 15:54:55;;;;;;;6.28;2.83;;;;;;;;;;10483019;28;20244;-69
2021/08/17 15:59:59;;;;;;;7.68;4.03;;;;;;;;;;10471199;28;20332;-69
2021/08/17 16:05:01;;;;;;;8.25;3.88;;;;;;;;;;10479977;28;20288;-69
2021/08/17 16:10:06;;;;;;;6.40;2.92;;;;;;;;;;10480793;28;20212;-69
2021/08/17 16:15:09;;;;;;;9.30;5.28;;;;;;;;;;10480610;28;20598;-68
2021/08/17 16:20:12;;;;;;;6.57;3.13;;;;;;;;;;10481033;28;20235;-69
2021/08/17 16:25:17;;;;;;;6.65;3.28;;;;;;;;;;10481845;28;20192;-69
2021/08/17 16:30:20;;;;;;;6.25;3.05;;;;;;;;;;10483005;28;20247;-69
2021/08/17 16:35:23;;;;;;;6.63;3.17;;;;;;;;;;10474113;28;20213;-69
2021/08/17 16:40:26;;;;;;;7.35;3.20;;;;;;;;;;10474470;28;20220;-68
2021/08/17 16:45:29;;;;;;;7.43;3.27;;;;;;;;;;10481600;28;20713;-68
2021/08/17 16:50:32;;;;;;;7.90;4.40;;;;;;;;;;10478629;28;20220;-67
2021/08/17 16:55:36;;;;;;;8.27;3.00;;;;;;;;;;10470995;28;20585;-69
2021/08/17 17:00:40;;;;;;;7.23;3.30;;;;;;;;;;10490989;28;20262;-69
2021/08/17 17:05:43;;;;;;;10.13;4.60;;;;;;;;;;10463263;28;20216;-68
2021/08/17 17:10:47;;;;;;;8.77;4.20;;;;;;;;;;10467094;28;20217;-69
2021/08/17 17:15:50;;;;;;;7.43;3.83;;;;;;;;;;10482761;28;20209;-69
2021/08/17 17:20:52;;;;;;;8.07;3.43;;;;;;;;;;10483262;28;20567;-69
2021/08/17 17:25:57;;;;;;;8.53;3.93;;;;;;;;;;10477575;28;20534;-69
2021/08/17 17:30:59;;;;;;;7.33;3.27;;;;;;;;;;10475764;28;20307;-68
2021/08/17 17:36:02;;;;;;;6.57;3.20;;;;;;;;;;10473383;28;20293;-70
2021/08/17 17:41:06;;;;;;;9.00;3.80;;;;;;;;;;10478579;28;20297;-69
2021/08/17 17:46:09;;;;;;;8.17;3.87;;;;;;;;;;10491648;28;20196;-69
2021/08/17 17:51:11;;;;;;;8.30;3.63;;;;;;;;;;10483112;28;20212;-69
2021/08/17 17:56:15;;;;;;;8.13;3.90;;;;;;;;;;10492452;28;20710;-69
2021/08/17 18:01:17;;;;;;;8.30;3.57;;;;;;;;;;10474151;28;20291;-69
2021/08/17 18:06:20;;;;;;;7.37;3.20;;;;;;;;;;10471820;28;20215;-69
2021/08/17 18:11:24;;;;;;;7.97;3.40;;;;;;;;;;10472787;28;20704;-69
2021/08/17 18:16:27;;;;;;;8.13;3.30;;;;;;;;;;10473861;28;20327;-69
2021/08/17 18:21:32;;;;;;;10.77;3.47;;;;;;;;;;10478383;28;20274;-69
2021/08/17 18:26:36;;;;;;;7.47;3.20;;;;;;;;;;10480846;28;20195;-68
2021/08/17 18:31:40;;;;;;;8.73;3.87;;;;;;;;;;10480269;28;20692;-68
2021/08/17 18:36:42;;;;;;;8.00;3.43;;;;;;;;;;10483627;28;20235;-68
2021/08/17 18:41:46;;;;;;;7.60;3.20;;;;;;;;;;10478702;28;20209;-68
2021/08/17 18:46:49;;;;;;;7.83;3.57;;;;;;;;;;10482617;28;20220;-67
2021/08/17 18:51:51;;;;;;;8.43;3.37;;;;;;;;;;10480634;28;20216;-68
2021/08/17 18:56:57;;;;;;;8.23;3.63;;;;;;;;;;10482206;28;20560;-70
2021/08/17 19:02:00;;;;;;;8.97;5.10;;;;;;;;;;10485916;28;20297;-68
2021/08/17 19:07:04;;;;;;;9.57;4.60;;;;;;;;;;10480371;28;20184;-69
2021/08/17 19:12:12;;;;;;;9.10;3.67;;;;;;;;;;10477612;28;20269;-69
2021/08/17 19:17:15;;;;;;;9.53;4.40;;;;;;;;;;10482478;28;20280;-68
2021/08/17 19:22:17;;;;;;;7.73;3.40;;;;;;;;;;10484206;28;20216;-67
2021/08/17 19:27:21;;;;;;;7.30;3.20;;;;;;;;;;10480162;28;20184;-67
2021/08/17 19:32:24;;;;;;;9.23;4.50;;;;;;;;;;10479709;28;20254;-67
2021/08/17 19:37:27;;;;;;;7.70;3.13;;;;;;;;;;10486400;28;20227;-68
2021/08/17 19:42:31;;;;;;;9.83;5.00;;;;;;;;;;10487338;28;20259;-68
2021/08/17 19:47:33;;;;;;;8.33;3.80;;;;;;;;;;10480684;28;20280;-67
2021/08/17 19:52:36;;;;;;;8.47;4.30;;;;;;;;;;10481294;28;20212;-67
2021/08/17 19:57:40;;;;;;;10.50;5.30;;;;;;;;;;10480084;28;20624;-68
2021/08/17 20:02:44;;;;;;;8.70;3.63;;;;;;;;;;10481373;28;20359;-67
2021/08/17 20:07:47;;;;;;;6.67;3.03;;;;;;;;;;10476759;28;20196;-67
2021/08/17 20:12:51;;;;;;;9.03;4.10;;;;;;;;;;10479180;28;20757;-68
2021/08/17 20:17:54;;;;;;;7.20;3.60;;;;;;;;;;10481860;28;20200;-68
2021/08/17 20:22:57;;;;;;;7.77;3.40;;;;;;;;;;10482573;28;20648;-67
2021/08/17 20:28:01;;;;;;;6.80;2.90;;;;;;;;;;10467790;28;20200;-68
2021/08/17 20:33:04;;;;;;;8.63;3.37;;;;;;;;;;10474228;28;20250;-68
2021/08/17 20:38:07;;;;;;;9.63;4.50;;;;;;;;;;10481653;28;20196;-69
2021/08/17 20:43:12;;;;;;;6.77;3.07;;;;;;;;;;10483707;28;20220;-69
2021/08/17 20:48:14;;;;;;;8.70;3.73;;;;;;;;;;10477972;28;20257;-70
2021/08/17 20:53:20;;;;;;;8.33;3.40;;;;;;;;;;10478822;28;20208;-70
2021/08/17 20:58:25;;;;;;;9.60;4.83;;;;;;;;;;10478112;28;20999;-71
2021/08/17 21:03:27;;;;;;;8.93;3.63;;;;;;;;;;10479915;28;20217;-68
2021/08/17 21:08:30;;;;;;;30.10;17.53;;;;;;;;;;10466079;28;20197;-70
2021/08/17 21:13:34;;;;;;;8.37;4.10;;;;;;;;;;10473320;28;20232;-69
2021/08/17 21:18:37;;;;;;;9.13;4.23;;;;;;;;;;10474303;28;20287;-68
2021/08/17 21:23:40;;;;;;;7.83;3.90;;;;;;;;;;10467128;28;20371;-68
2021/08/17 21:28:44;;;;;;;9.30;4.10;;;;;;;;;;10471744;28;20238;-69
2021/08/17 21:33:47;;;;;;;9.93;4.00;;;;;;;;;;10467228;28;20213;-68
2021/08/17 21:38:49;;;;;;;8.93;4.13;;;;;;;;;;10471601;28;20283;-67
2021/08/17 21:43:53;;;;;;;8.23;4.27;;;;;;;;;;10468742;28;20216;-69
2021/08/17 21:48:56;;;;;;;8.60;4.20;;;;;;;;;;10468424;28;20208;-69
2021/08/17 21:53:58;;;;;;;9.77;4.13;;;;;;;;;;10481953;28;20230;-68
2021/08/17 21:59:02;;;;;;;10.27;4.10;;;;;;;;;;10477208;28;20560;-68
2021/08/17 22:04:05;;;;;;;9.50;4.20;;;;;;;;;;10480533;28;20226;-68
2021/08/17 22:09:07;;;;;;;9.53;4.33;;;;;;;;;;10490697;28;20192;-69
2021/08/17 22:14:11;;;;;;;9.20;3.97;;;;;;;;;;10483362;28;20604;-67
2021/08/17 22:19:14;;;;;;;10.07;4.50;;;;;;;;;;10477806;28;20683;-66
2021/08/17 22:24:27;;;;;;;10.63;4.20;;;;;;;;;;10472960;28;20224;-70
2021/08/17 22:29:31;;;;;;;9.47;4.17;;;;;;;;;;10476193;28;20593;-68
2021/08/17 22:34:33;;;;;;;9.43;4.13;;;;;;;;;;10473283;28;20510;-67
2021/08/17 22:39:36;;;;;;;9.40;3.87;;;;;;;;;;10473845;28;20255;-67
2021/08/17 22:44:40;;;;;;;10.50;4.50;;;;;;;;;;10467285;28;20243;-68
2021/08/17 22:49:42;;;;;;;9.20;4.10;;;;;;;;;;10468654;28;20512;-68
2021/08/17 22:54:45;;;;;;;9.23;4.00;;;;;;;;;;10469697;28;20628;-68
2021/08/17 22:59:49;;;;;;;9.20;4.10;;;;;;;;;;10474577;28;20250;-69
2021/08/17 23:04:51;;;;;;;10.97;4.17;;;;;;;;;;10478464;28;20281;-68
2021/08/17 23:09:54;;;;;;;8.90;3.73;;;;;;;;;;10474016;28;20278;-68
2021/08/17 23:14:58;;;;;;;10.70;4.20;;;;;;;;;;10472395;28;20211;-69
2021/08/17 23:20:00;;;;;;;8.80;4.00;;;;;;;;;;10473711;28;20239;-69
2021/08/17 23:25:03;;;;;;;9.70;4.07;;;;;;;;;;10464291;28;20497;-68
2021/08/17 23:30:08;;;;;;;10.00;4.10;;;;;;;;;;10475253;28;20281;-70
2021/08/17 23:35:11;;;;;;;11.63;4.70;;;;;;;;;;10465451;28;20204;-70
2021/08/17 23:40:14;;;;;;;9.57;3.70;;;;;;;;;;10475475;28;20603;-68
2021/08/17 23:45:18;;;;;;;9.47;3.60;;;;;;;;;;10467896;28;20359;-68
2021/08/17 23:50:21;;;;;;;8.83;3.80;;;;;;;;;;10470633;28;20231;-69
2021/08/17 23:55:23;;;;;;;8.73;3.10;;;;;;;;;;10466251;28;20200;-69
